Flugplatz Barßel

EDXL · Lower Saxony, Germany

METAR history EDXL · Flugplatz Barßel

Below you see METARs of the last few days. Select a year to browse through older METARs, from the year 2007 onwards.

December 6, 2022

Time Code Weather Temp. Visibility Ceiling Wind METAR/SPECI
04:20
U
4 °C 0 m - 350° 350° 3 kt METAR ETNT 060320Z AUTO 35003KT //// // ////// 04/03 Q1018 ///
03:20
U
4 °C 0 m - 020° 020° 5 kt METAR ETNT 060220Z AUTO 02005KT //// // ////// 04/04 Q1018 ///
02:20
U
5 °C 0 m - 020° 020° 4 kt METAR ETNT 060120Z AUTO 02004KT //// // ////// 05/04 Q1019 ///
01:20
U
5 °C 0 m - 020° 020° 4 kt METAR ETNT 060020Z AUTO 02004KT //// // ////// 05/04 Q1019 ///
00:20
U
5 °C 0 m - 020° 020° 7 kt METAR ETNT 052320Z AUTO 02007KT //// // ////// 05/04 Q1019 ///

December 5, 2022

Time Code Weather Temp. Visibility Ceiling Wind METAR/SPECI
23:20
U
5 °C 0 m - 030° 030° 7 kt METAR ETNT 052220Z AUTO 03007KT //// // ////// 05/04 Q1019 ///
22:20
L
5 °C 4.5 km 400 ft 030° 030° 5 kt METAR ETNT 052120Z 03005KT 4500 -RADZ BR BKN004 BKN012 05/04 Q1019 BLACKYLO
21:20
L
5 °C 4.5 km 300 ft 040° 040° 7 kt METAR ETNT 052020Z 04007KT 4500 -RADZ BR BKN003 BKN012 05/04 Q1019 BLACKYLO
20:20
L
5 °C 4 km 300 ft 040° 040° 7 kt METAR ETNT 051920Z 04007KT 4000 -RADZ BR BKN003 BKN013 05/04 Q1019 BLACKYLO
19:20
L
5 °C 4 km 400 ft 040° 040° 7 kt METAR ETNT 051820Z 04007KT 4000 -RADZ BR BKN004 BKN012 05/04 Q1019 BLACKYLO
18:20
L
4 °C 4 km 300 ft 040° 040° 7 kt METAR ETNT 051720Z 04007KT 4000 -RADZ BR BKN003 04/04 Q1019 BLACKYLO
17:20
L
5 °C 4 km 400 ft 050° 050° 8 kt METAR ETNT 051620Z 05008KT 4000 -RADZ BR BKN004 05/04 Q1019 BLACKYLO
16:20
L
5 °C 4 km 400 ft 040° 040° 9 kt METAR ETNT 051520Z 04009KT 4000 -RADZ BR BKN004 05/04 Q1019 BLACKYLO
15:20
L
5 °C 4 km 400 ft 050° 050° 10 kt METAR ETNT 051420Z 05010KT 4000 -RADZ BR BKN004 05/04 Q1019 BLACKYLO
14:20
L
5 °C 5 km 400 ft 050° 050° 11 kt METAR ETNT 051320Z 05011KT 5000 -RADZ BR BKN004 05/04 Q1019 BLACKYLO
13:20
I
5 °C 6 km 800 ft 050° 050° 11 kt METAR ETNT 051220Z 05011KT 6000 -RADZ BKN008 05/04 Q1019 BLACKGRN
12:20
I
5 °C 5 km 700 ft 050° 050° 10 kt METAR ETNT 051120Z 05010KT 5000 -RADZ BR BKN007 05/04 Q1019 BLACKGRN
11:20
L
5 °C 4 km 400 ft 050° 050° 11 kt METAR ETNT 051020Z 05011KT 4000 -RADZ BR BKN004 05/04 Q1020 BLACKYLO
10:20
L
5 °C 5 km 400 ft 050° 050° 11 kt METAR ETNT 050920Z 05011KT 5000 -RADZ BR BKN004 05/04 Q1020 BLACKYLO
09:20
L
5 °C 6 km 400 ft 050° 050° 11 kt METAR ETNT 050820Z 05011KT 6000 BKN004 05/04 Q1020 BLACKYLO
08:20
L
5 °C 5 km 400 ft 050° 050° 11 kt METAR ETNT 050720Z 05011KT 5000 -RADZ BR BKN004 05/04 Q1020 BLACKYLO
07:20
L
5 °C 5 km 300 ft 050° 050° 13 kt METAR ETNT 050620Z 05013KT 5000 -RADZ BR BKN003 05/04 Q1020 BLACKYLO
06:20
L
5 °C 5 km 300 ft 050° 050° 11 - 21 kt METAR ETNT 050520Z 05011G21KT 5000 -RADZ BR BKN003 05/04 Q1020 BLACKYLO
05:20
U
5 °C 0 m - 060° 060° 11 kt METAR ETNT 050420Z AUTO 06011KT //// // ////// 05/05 Q1019 ///
04:20
U
5 °C 0 m - 050° 050° 11 kt METAR ETNT 050320Z AUTO 05011KT //// // ////// 05/04 Q1019 ///
03:20
U
5 °C 0 m - 050° 050° 12 kt METAR ETNT 050220Z AUTO 05012KT //// // ////// 05/04 Q1020 ///
02:20
U
5 °C 0 m - 050° 050° 13 kt METAR ETNT 050120Z AUTO 05013KT //// // ////// 05/04 Q1020 ///
01:20
U
5 °C 0 m - 060° 060° 12 kt METAR ETNT 050020Z AUTO 06012KT //// // ////// 05/04 Q1020 ///
00:20
U
5 °C 0 m - 050° 050° 9 - 19 kt METAR ETNT 042320Z AUTO 05009G19KT //// // ////// 05/04 Q1020 ///

December 4, 2022

Time Code Weather Temp. Visibility Ceiling Wind METAR/SPECI
23:20
U
5 °C 0 m - 060° 060° 7 kt METAR ETNT 042220Z AUTO 06007KT //// // ////// 05/03 Q1020 ///
22:20
U
5 °C 0 m - 080° 080° 10 kt METAR ETNT 042120Z AUTO 08010KT //// // ////// 05/03 Q1021 ///
21:20
U
5 °C 0 m - 080° 080° 12 kt METAR ETNT 042020Z AUTO 08012KT //// // ////// 05/03 Q1021 ///
20:20
U
5 °C 0 m - 070° 070° 9 kt METAR ETNT 041920Z AUTO 07009KT //// // ////// 05/03 Q1021 ///
19:20
U
4 °C 0 m - 060° 060° 10 kt METAR ETNT 041820Z AUTO 06010KT //// // ////// 04/02 Q1020 ///
18:20
U
4 °C 0 m - 060° 060° 10 kt METAR ETNT 041720Z AUTO 06010KT //// // ////// 04/01 Q1020 ///
17:20
U
4 °C 0 m - 060° 060° 7 kt METAR ETNT 041620Z AUTO 06007KT //// // ////// 04/01 Q1020 ///
16:20
U
3 °C 0 m - 070° 070° 10 kt METAR ETNT 041520Z AUTO 07010KT //// // ////// 03/01 Q1020 ///
15:20
U
3 °C 0 m - 080° 080° 9 kt METAR ETNT 041420Z AUTO 08009KT //// // ////// 03/00 Q1020 ///
14:20
U
3 °C 0 m - 090° 090° 13 kt METAR ETNT 041320Z AUTO 09013KT //// // ////// 03/00 Q1021 ///
13:20
U
3 °C 0 m - 070° 070° 10 kt METAR ETNT 041220Z AUTO 07010KT //// // ////// 03/00 Q1021 ///
12:20
U
2 °C 0 m - 080° 080° 10 kt METAR ETNT 041120Z AUTO 08010KT //// // ////// 02/M00 Q1021 ///
11:20
U
2 °C 0 m - 080° 080° 10 kt METAR ETNT 041020Z AUTO 08010KT //// // ////// 02/M01 Q1022 ///
10:20
U
2 °C 0 m - 080° 080° 10 kt METAR ETNT 040920Z AUTO 08010KT //// // ////// 02/M01 Q1022 ///
09:20
U
1 °C 0 m - 080° 080° 8 kt METAR ETNT 040820Z AUTO 08008KT //// // ////// 01/M01 Q1021 ///
08:20
U
1 °C 0 m - 080° 080° 10 kt METAR ETNT 040720Z AUTO 08010KT //// // ////// 01/M01 Q1021 ///
07:20
U
0 °C 0 m - 080° 080° 9 kt METAR ETNT 040620Z AUTO 08009KT //// // ////// 00/M02 Q1021 ///
06:20
U
0 °C 0 m - 090° 090° 6 kt METAR ETNT 040520Z AUTO 09006KT //// // ////// M00/M02 Q1021 ///
05:20
U
0 °C 0 m - 090° 090° 7 kt METAR ETNT 040420Z AUTO 09007KT //// // ////// M00/M03 Q1021 ///
04:20
U
0 °C 0 m - 100° 100° 8 kt METAR ETNT 040320Z AUTO 10008KT //// // ////// M00/M03 Q1021 ///
03:20
U
0 °C 0 m - 090° 090° 7 kt METAR ETNT 040220Z AUTO 09007KT //// // ////// M00/M03 Q1021 ///
02:20
U
0 °C 0 m - 090° 090° 9 kt METAR ETNT 040120Z AUTO 09009KT //// // ////// 00/M03 Q1021 ///
01:20
U
1 °C 0 m - 100° 100° 7 kt METAR ETNT 040020Z AUTO 10007KT //// // ////// 01/M02 Q1021 ///
00:20
U
1 °C 0 m - 110° 110° 9 kt METAR ETNT 032320Z AUTO 11009KT //// // ////// 01/M02 Q1021 ///

December 3, 2022

Time Code Weather Temp. Visibility Ceiling Wind METAR/SPECI
23:20
U
0 °C 0 m - 100° 100° 5 kt METAR ETNT 032220Z AUTO 10005KT //// // ////// 00/M02 Q1021 ///
22:20
U
0 °C 0 m - 090° 090° 6 kt METAR ETNT 032120Z AUTO 09006KT //// // ////// M00/M02 Q1022 ///
21:20
U
0 °C 0 m - 090° 090° 7 kt METAR ETNT 032020Z AUTO 09007KT //// // ////// 00/M02 Q1022 ///
20:20
U
1 °C 0 m - 100° 100° 9 kt METAR ETNT 031920Z AUTO 10009KT //// // ////// 01/M02 Q1022 ///
19:20
U
1 °C 0 m - 070° 070° 8 kt METAR ETNT 031820Z AUTO 07008KT //// // ////// 01/M01 Q1022 ///
18:20
U
2 °C 0 m - 070° 070° 9 kt METAR ETNT 031720Z AUTO 07009KT //// // ////// 02/M01 Q1022 ///
17:20
U
2 °C 0 m - 080° 080° 9 kt METAR ETNT 031620Z AUTO 08009KT //// // ////// 02/M01 Q1022 ///
16:20
U
2 °C 0 m - 090° 090° 6 kt METAR ETNT 031520Z AUTO 09006KT //// // ////// 02/M01 Q1022 ///
15:20
U
2 °C 0 m - 090° 090° 8 kt METAR ETNT 031420Z AUTO 09008KT //// // ////// 02/M01 Q1023 ///
14:20
U
2 °C 0 m - 080° 080° 10 kt METAR ETNT 031320Z AUTO 08010KT //// // ////// 02/M01 Q1023 ///
13:20
U
2 °C 0 m - 080° 080° 8 kt METAR ETNT 031220Z AUTO 08008KT //// // ////// 02/M01 Q1023 ///
12:20
U
2 °C 0 m - 090° 090° 8 kt METAR ETNT 031120Z AUTO 09008KT //// // ////// 02/M01 Q1024 ///
11:20
U
2 °C 0 m - 090° 090° 7 kt METAR ETNT 031020Z AUTO 09007KT //// // ////// 02/M01 Q1025 ///

We and third parties follow your internet behavior on our website with cookies. If you continue, we assume you agree with our cookie policy.